Time;durP1;ratioP1;P1;durP2;ratioP2;P2;SDS_P1;SDS_P2;PMS_P1;PMS_P2;Temp;Humidity;BMP_temperature;BMP_pressure;BME280_temperature;BME280_humidity;BME280_pressure;Samples;Min_cycle;Max_cycle;Signal;HPM_P1;HPM_P2
2022/06/22 00:02:26;;;;;;;0.40;0.40;;;14.10;99.90;;;;;;4992533;28;20542;-85
2022/06/22 00:05:00;;;;;;;0.40;0.40;;;14.10;99.90;;;;;;4993021;28;20207;-85
2022/06/22 00:07:39;;;;;;;0.40;0.40;;;14.10;99.90;;;;;;4992334;28;20663;-85
2022/06/22 00:10:18;;;;;;;0.52;0.52;;;14.00;99.90;;;;;;4992616;28;20206;-85
2022/06/22 00:12:50;;;;;;;0.40;0.40;;;14.00;99.90;;;;;;4992005;28;20764;-85
2022/06/22 00:15:35;;;;;;;0.30;0.30;;;13.90;99.90;;;;;;4992375;28;20200;-84
2022/06/22 00:18:20;;;;;;;0.38;0.38;;;13.80;99.90;;;;;;4993429;28;20223;-84
2022/06/22 00:20:51;;;;;;;0.57;0.57;;;13.80;99.90;;;;;;4992175;28;20227;-84
2022/06/22 00:23:26;;;;;;;0.50;0.50;;;13.90;99.90;;;;;;4992279;28;20226;-86
2022/06/22 00:25:58;;;;;;;0.40;0.40;;;13.90;99.90;;;;;;4992624;28;20198;-86
2022/06/22 00:28:26;;;;;;;0.65;0.65;;;13.90;99.90;;;;;;4992413;28;20192;-86
2022/06/22 00:30:59;;;;;;;0.50;0.50;;;13.90;99.90;;;;;;4992549;28;20281;-86
2022/06/22 00:33:25;;;;;;;0.50;0.50;;;13.90;99.90;;;;;;4992376;28;20674;-86
2022/06/22 00:35:50;;;;;;;0.40;0.40;;;13.90;99.90;;;;;;4992183;28;20238;-86
2022/06/22 00:38:20;;;;;;;0.40;0.40;;;13.90;99.90;;;;;;4992099;28;20306;-86
2022/06/22 00:40:51;;;;;;;0.50;0.50;;;13.90;99.90;;;;;;4992384;28;20207;-87
2022/06/22 00:43:17;;;;;;;0.45;0.45;;;13.90;99.90;;;;;;4992104;28;20196;-85
2022/06/22 00:45:44;;;;;;;0.40;0.40;;;13.80;99.90;;;;;;4993145;28;20195;-86
2022/06/22 00:48:21;;;;;;;0.40;0.40;;;13.80;99.90;;;;;;4991882;28;20627;-86
2022/06/22 00:50:55;;;;;;;0.50;0.50;;;13.80;99.90;;;;;;4992075;28;20210;-85
2022/06/22 00:53:40;;;;;;;1.00;1.00;;;13.70;99.90;;;;;;4991322;28;20212;-85
2022/06/22 00:56:32;;;;;;;0.40;0.40;;;13.70;99.90;;;;;;4991726;28;20291;-85
2022/06/22 00:59:48;;;;;;;1.20;1.10;;;13.70;99.90;;;;;;4988576;28;20219;-86
2022/06/22 01:02:44;;;;;;;0.40;0.40;;;13.70;99.90;;;;;;4990675;28;20218;-87
2022/06/22 01:05:20;;;;;;;0.40;0.40;;;13.70;99.90;;;;;;4995451;28;20195;-85
2022/06/22 01:08:05;;;;;;;0.88;0.88;;;13.70;99.90;;;;;;4995003;28;20202;-87
2022/06/22 01:10:54;;;;;;;1.02;0.57;;;13.70;99.90;;;;;;4995181;28;20805;-87
2022/06/22 01:13:42;;;;;;;0.50;0.50;;;13.70;99.90;;;;;;4994974;28;20231;-86
2022/06/22 01:16:17;;;;;;;0.35;0.35;;;13.70;99.90;;;;;;4996503;28;20281;-86
2022/06/22 01:18:59;;;;;;;0.43;0.43;;;13.70;99.90;;;;;;4994826;28;20217;-86
2022/06/22 01:21:35;;;;;;;0.60;0.60;;;13.70;99.90;;;;;;4995126;28;20222;-86
2022/06/22 01:24:28;;;;;;;0.30;0.30;;;13.70;99.90;;;;;;5000285;28;20244;-85
2022/06/22 01:27:23;;;;;;;1.10;0.88;;;13.70;99.90;;;;;;4997656;28;20662;-86
2022/06/22 01:29:56;;;;;;;0.60;0.60;;;13.70;99.90;;;;;;4985713;28;20207;-86
2022/06/22 01:32:26;;;;;;;0.60;0.60;;;13.70;99.90;;;;;;4997939;28;20199;-86
2022/06/22 01:34:56;;;;;;;0.30;0.30;;;13.70;99.90;;;;;;4998078;28;20208;-85
2022/06/22 01:37:25;;;;;;;0.63;0.63;;;13.70;99.90;;;;;;5000275;28;20672;-87
2022/06/22 01:40:18;;;;;;;0.35;0.35;;;13.70;99.90;;;;;;4998550;28;20222;-84
2022/06/22 01:42:57;;;;;;;0.40;0.40;;;13.60;99.90;;;;;;4998313;28;20261;-86
2022/06/22 01:45:38;;;;;;;0.50;0.50;;;13.60;99.90;;;;;;4997382;28;20249;-85
2022/06/22 01:48:15;;;;;;;0.50;0.50;;;13.60;99.90;;;;;;4995944;28;20254;-84
2022/06/22 01:50:58;;;;;;;0.68;0.65;;;13.60;99.90;;;;;;4995161;28;20215;-85
2022/06/22 01:53:37;;;;;;;0.68;0.68;;;13.60;99.90;;;;;;4995403;28;20707;-85
2022/06/22 01:56:21;;;;;;;0.63;0.63;;;13.70;99.90;;;;;;4995402;28;20204;-86
2022/06/22 01:59:27;;;;;;;0.60;0.60;;;13.70;99.90;;;;;;4998926;28;20207;-86
2022/06/22 02:02:08;;;;;;;0.40;0.40;;;13.80;99.90;;;;;;4984373;28;20223;-85
2022/06/22 02:04:42;;;;;;;0.75;0.75;;;13.80;99.90;;;;;;4982994;28;20203;-86
2022/06/22 02:07:45;;;;;;;0.43;0.43;;;13.80;99.90;;;;;;4995069;28;20291;-87
2022/06/22 02:10:43;;;;;;;0.73;0.73;;;13.70;99.90;;;;;;4994835;28;20195;-86
2022/06/22 02:13:40;;;;;;;8.57;0.75;;;13.70;99.90;;;;;;4987950;28;20697;-86
2022/06/22 02:16:29;;;;;;;0.40;0.40;;;13.70;99.90;;;;;;4995246;28;20203;-87
2022/06/22 02:18:58;;;;;;;0.40;0.40;;;13.70;99.90;;;;;;4994909;28;20718;-86
2022/06/22 02:21:45;;;;;;;0.40;0.40;;;13.70;99.90;;;;;;4994228;28;20195;-86
2022/06/22 02:24:16;;;;;;;0.50;0.50;;;13.70;99.90;;;;;;4994501;28;20199;-86
2022/06/22 02:26:53;;;;;;;0.40;0.40;;;13.70;99.90;;;;;;4994288;28;20246;-86
2022/06/22 02:29:24;;;;;;;0.50;0.50;;;13.80;99.90;;;;;;4994285;28;20195;-86
2022/06/22 02:31:51;;;;;;;1.27;0.90;;;13.90;99.90;;;;;;4994542;28;20678;-86
2022/06/22 02:34:20;;;;;;;2.28;0.70;;;13.90;99.90;;;;;;4995429;28;20200;-86
2022/06/22 02:36:48;;;;;;;0.60;0.60;;;13.90;99.90;;;;;;4996238;28;20226;-87
2022/06/22 02:39:17;;;;;;;0.40;0.40;;;13.90;99.90;;;;;;4997081;28;20207;-86
2022/06/22 02:44:34;;;;;;;0.47;0.47;;;13.90;99.90;;;;;;4998729;28;20249;-86
2022/06/22 02:47:16;;;;;;;0.65;0.65;;;13.90;99.90;;;;;;4976403;28;20196;-86
2022/06/22 16:17:20;;;;;;;0.30;0.30;;;21.00;99.90;;;;;;5106203;27;21014;-71
2022/06/22 16:20:11;;;;;;;0.20;0.20;;;20.70;99.90;;;;;;5052339;28;20662;-69
2022/06/22 16:22:57;;;;;;;0.60;0.60;;;20.90;99.90;;;;;;5070759;28;20666;-68
2022/06/22 16:25:26;;;;;;;0.20;0.20;;;20.80;99.90;;;;;;5070966;28;20713;-68
2022/06/22 16:28:01;;;;;;;0.20;0.20;;;21.00;99.90;;;;;;5070913;28;20567;-69
2022/06/22 16:30:45;;;;;;;0.20;0.20;;;21.30;99.90;;;;;;5088785;28;20187;-69
2022/06/22 16:33:16;;;;;;;0.65;0.30;;;21.30;99.90;;;;;;5088862;28;20184;-68
2022/06/22 16:35:59;;;;;;;0.38;0.38;;;20.70;99.90;;;;;;5070258;28;20261;-69
2022/06/22 16:38:45;;;;;;;0.43;0.43;;;20.50;99.90;;;;;;5052400;28;20192;-69
2022/06/22 16:41:25;;;;;;;0.20;0.20;;;20.40;99.90;;;;;;5068477;28;20201;-67
2022/06/22 16:44:25;;;;;;;0.30;0.30;;;20.40;99.90;;;;;;5068687;28;20260;-68
2022/06/22 16:47:05;;;;;;;0.40;0.40;;;20.30;99.90;;;;;;5068494;28;20280;-68
2022/06/22 16:49:55;;;;;;;0.20;0.20;;;20.20;99.90;;;;;;5068476;28;20216;-68
2022/06/22 16:52:33;;;;;;;0.60;0.40;;;20.10;99.90;;;;;;5068519;28;20188;-68
2022/06/22 16:55:18;;;;;;;0.20;0.20;;;20.20;99.90;;;;;;5068308;28;20262;-69
2022/06/22 16:57:53;;;;;;;0.20;0.20;;;20.20;99.90;;;;;;5068436;28;20193;-70
2022/06/22 17:00:22;;;;;;;0.25;0.25;;;20.20;99.90;;;;;;5068540;28;20562;-69
2022/06/22 17:02:48;;;;;;;0.30;0.30;;;20.20;99.90;;;;;;5050506;28;20209;-68
2022/06/22 17:05:22;;;;;;;0.43;0.43;;;20.00;99.90;;;;;;5050215;28;20559;-68
2022/06/22 17:07:55;;;;;;;0.38;0.38;;;19.90;99.90;;;;;;5068421;28;20192;-68
2022/06/22 17:10:30;;;;;;;0.40;0.40;;;19.80;99.90;;;;;;5067898;28;20191;-68
2022/06/22 17:13:07;;;;;;;0.90;0.52;;;19.70;99.90;;;;;;5070300;28;20193;-68
2022/06/22 17:15:54;;;;;;;0.30;0.30;;;19.60;99.90;;;;;;5077406;28;20247;-68
2022/06/22 17:18:31;;;;;;;0.52;0.40;;;19.70;99.90;;;;;;5067806;28;20193;-68
2022/06/22 17:21:10;;;;;;;0.30;0.30;;;19.70;99.90;;;;;;5049917;28;20199;-68
2022/06/22 17:23:51;;;;;;;0.30;0.30;;;19.70;99.90;;;;;;5067890;28;20192;-68
2022/06/22 17:26:32;;;;;;;0.85;0.70;;;19.70;99.90;;;;;;5064618;28;20189;-69
2022/06/22 17:29:13;;;;;;;0.30;0.30;;;19.60;99.90;;;;;;5054807;28;20250;-68
2022/06/22 17:31:48;;;;;;;0.30;0.30;;;19.40;99.90;;;;;;5054909;28;20263;-68
2022/06/22 17:34:42;;;;;;;0.30;0.30;;;19.40;99.90;;;;;;5054587;28;20281;-68
2022/06/22 17:37:13;;;;;;;0.30;0.30;;;19.40;99.90;;;;;;5054274;28;20193;-68
2022/06/22 17:39:44;;;;;;;0.30;0.30;;;19.30;99.90;;;;;;5054163;28;21247;-67
2022/06/22 17:42:13;;;;;;;0.20;0.20;;;19.20;99.90;;;;;;5054206;28;20193;-68
2022/06/22 17:44:41;;;;;;;0.40;0.40;;;19.00;99.90;;;;;;5054066;28;20193;-68
2022/06/22 17:47:30;;;;;;;0.30;0.30;;;18.80;99.90;;;;;;5054162;28;20209;-68
2022/06/22 17:50:02;;;;;;;0.30;0.30;;;18.80;99.90;;;;;;5054070;28;20644;-68
2022/06/22 17:52:31;;;;;;;0.40;0.40;;;18.80;99.90;;;;;;5053917;28;20228;-68
2022/06/22 17:55:07;;;;;;;0.25;0.25;;;18.90;99.90;;;;;;5036122;28;20644;-68
2022/06/22 17:57:41;;;;;;;0.30;0.30;;;18.80;99.90;;;;;;5035779;28;20615;-68
2022/06/22 18:00:20;;;;;;;0.55;0.40;;;18.70;99.90;;;;;;5036378;28;20227;-68
2022/06/22 18:02:56;;;;;;;0.30;0.30;;;18.60;99.90;;;;;;5035889;28;20197;-69
2022/06/22 18:05:32;;;;;;;0.95;0.50;;;18.60;99.90;;;;;;5035300;28;20208;-69
2022/06/22 18:08:16;;;;;;;0.20;0.20;;;18.50;99.90;;;;;;5053722;28;20177;-69
2022/06/22 18:10:58;;;;;;;0.40;0.40;;;18.40;99.90;;;;;;5053262;28;20223;-69
2022/06/22 18:13:38;;;;;;;0.20;0.20;;;18.30;99.90;;;;;;5053927;28;20189;-69
2022/06/22 18:16:07;;;;;;;2.50;0.43;;;18.30;99.90;;;;;;5061073;28;20719;-69
2022/06/22 18:18:46;;;;;;;0.35;0.35;;;18.20;99.90;;;;;;5072017;28;20216;-70
2022/06/22 18:21:56;;;;;;;0.70;0.70;;;18.20;99.90;;;;;;5073342;28;20267;-70
2022/06/22 18:24:31;;;;;;;0.30;0.30;;;18.70;99.90;;;;;;4994402;28;20560;-70
2022/06/22 18:26:57;;;;;;;0.55;0.55;;;19.00;99.90;;;;;;5011177;28;20198;-71
2022/06/22 18:29:27;;;;;;;0.40;0.40;;;19.40;99.90;;;;;;5005819;28;20655;-70
2022/06/22 18:32:25;;;;;;;0.65;0.50;;;19.80;99.90;;;;;;4991510;28;20215;-71
2022/06/22 18:35:07;;;;;;;0.28;0.28;;;20.30;99.90;;;;;;4991319;28;20231;-67
2022/06/22 18:37:40;;;;;;;0.47;0.40;;;20.20;99.90;;;;;;4990878;28;20199;-68
2022/06/22 18:43:17;;;;;;;0.20;0.20;;;19.50;99.90;;;;;;4991515;28;20277;-68
2022/06/22 18:45:53;;;;;;;0.20;0.20;;;19.10;99.90;;;;;;4991127;28;20572;-69
2022/06/22 18:48:56;;;;;;;0.60;0.47;;;19.10;99.90;;;;;;4990748;28;20290;-68
2022/06/22 18:51:35;;;;;;;0.30;0.30;;;19.20;99.90;;;;;;4953456;28;20207;-67
2022/06/22 18:54:04;;;;;;;0.40;0.40;;;19.20;99.90;;;;;;4974652;28;20288;-69
2022/06/22 18:56:32;;;;;;;0.28;0.28;;;19.20;99.90;;;;;;4990729;28;20219;-69
2022/06/22 18:59:05;;;;;;;0.55;0.55;;;19.20;99.90;;;;;;5041000;28;20206;-70
2022/06/22 19:01:41;;;;;;;0.30;0.30;;;19.20;99.90;;;;;;5050616;28;20201;-68
2022/06/22 19:04:28;;;;;;;2.17;0.50;;;19.40;99.90;;;;;;5051239;28;20207;-68
2022/06/22 19:07:15;;;;;;;0.50;0.28;;;19.60;99.90;;;;;;5066792;28;20207;-68
2022/06/22 19:09:53;;;;;;;0.45;0.43;;;19.50;99.90;;;;;;5070858;28;20208;-67
2022/06/22 19:12:26;;;;;;;0.20;0.20;;;19.70;99.90;;;;;;5072225;28;20199;-68
2022/06/22 19:14:57;;;;;;;4.65;0.75;;;19.90;99.90;;;;;;5067327;28;20589;-68
2022/06/22 19:17:51;;;;;;;0.30;0.30;;;19.90;99.90;;;;;;5034233;28;20586;-68
2022/06/22 19:21:10;;;;;;;0.20;0.20;;;19.80;99.90;;;;;;5052319;28;20182;-69
2022/06/22 19:23:41;;;;;;;0.20;0.20;;;19.50;99.90;;;;;;5025388;28;20688;-68
2022/06/22 19:26:42;;;;;;;0.30;0.30;;;19.30;99.90;;;;;;5034640;28;20248;-67
2022/06/22 19:29:31;;;;;;;0.45;0.35;;;19.30;99.90;;;;;;4960725;28;20677;-67
2022/06/22 19:32:19;;;;;;;1.00;0.43;;;18.60;99.90;;;;;;5014479;28;20791;-67
2022/06/22 19:35:09;;;;;;;0.30;0.30;;;18.00;99.90;;;;;;5032037;28;22564;-67
2022/06/22 19:38:13;;;;;;;0.25;0.25;;;17.60;99.90;;;;;;5031993;28;20221;-68
2022/06/22 19:40:59;;;;;;;0.32;0.32;;;17.20;99.90;;;;;;4934357;28;20260;-67
2022/06/22 19:43:41;;;;;;;0.20;0.20;;;17.00;99.90;;;;;;5014205;28;20273;-67
2022/06/22 19:46:15;;;;;;;0.30;0.30;;;16.70;99.90;;;;;;5032079;28;20233;-67
2022/06/22 19:49:04;;;;;;;0.30;0.30;;;16.50;99.90;;;;;;5031859;28;20283;-67
2022/06/22 19:52:03;;;;;;;0.40;0.40;;;16.30;99.90;;;;;;5031742;28;20198;-68
2022/06/22 19:54:54;;;;;;;0.50;0.50;;;16.20;99.90;;;;;;5031466;28;20198;-67
2022/06/22 19:57:19;;;;;;;0.30;0.30;;;16.00;99.90;;;;;;5013893;28;20197;-68
2022/06/22 19:59:47;;;;;;;0.40;0.40;;;15.90;99.90;;;;;;5031980;28;20194;-68
2022/06/22 20:02:16;;;;;;;0.30;0.30;;;15.70;99.90;;;;;;5020733;28;20200;-68
2022/06/22 20:05:24;;;;;;;0.30;0.30;;;15.60;99.90;;;;;;5033733;28;20568;-68
2022/06/22 20:08:14;;;;;;;0.40;0.40;;;15.40;99.90;;;;;;5031786;28;20657;-67
2022/06/22 20:11:14;;;;;;;0.65;0.65;;;15.30;99.90;;;;;;5031744;28;20191;-70
2022/06/22 20:14:02;;;;;;;0.30;0.30;;;15.10;99.90;;;;;;5031805;28;20695;-68
2022/06/22 20:16:28;;;;;;;0.90;0.65;;;15.10;99.90;;;;;;5045422;28;20317;-68
2022/06/22 20:18:54;;;;;;;0.30;0.30;;;14.90;99.90;;;;;;5051378;28;20556;-68
2022/06/22 20:21:32;;;;;;;0.30;0.30;;;14.80;99.90;;;;;;5051421;28;20504;-68
2022/06/22 20:23:57;;;;;;;0.30;0.30;;;14.70;99.90;;;;;;5052005;28;20189;-68
2022/06/22 20:26:30;;;;;;;0.40;0.40;;;14.60;99.90;;;;;;5050181;28;20208;-68
2022/06/22 20:29:02;;;;;;;0.50;0.50;;;14.60;99.90;;;;;;5051656;28;20201;-68
2022/06/22 20:31:45;;;;;;;0.30;0.30;;;14.50;99.90;;;;;;5051255;28;20194;-70
2022/06/22 20:34:19;;;;;;;0.40;0.40;;;14.50;99.90;;;;;;5050106;28;20393;-68
2022/06/22 20:36:52;;;;;;;0.50;0.50;;;14.50;99.90;;;;;;5051318;28;20200;-68
2022/06/22 20:39:18;;;;;;;0.40;0.40;;;14.40;99.90;;;;;;5049929;28;20567;-68
2022/06/22 20:42:01;;;;;;;0.60;0.60;;;14.50;99.90;;;;;;5049776;28;20625;-69
2022/06/22 20:44:50;;;;;;;0.40;0.40;;;14.50;99.90;;;;;;5050142;28;20204;-71
2022/06/22 20:47:24;;;;;;;0.40;0.40;;;14.40;99.90;;;;;;5050160;28;20198;-70
2022/06/22 20:50:02;;;;;;;0.68;0.63;;;14.50;99.90;;;;;;5050061;28;20648;-70
2022/06/22 20:52:33;;;;;;;0.40;0.40;;;14.40;99.90;;;;;;5050788;28;20193;-68
2022/06/22 20:55:12;;;;;;;0.57;0.57;;;14.30;99.90;;;;;;5050888;28;20206;-68
2022/06/22 20:57:49;;;;;;;0.50;0.50;;;14.20;99.90;;;;;;5050684;28;20193;-69
2022/06/22 21:00:19;;;;;;;0.38;0.38;;;14.10;99.90;;;;;;5051112;28;20600;-68
2022/06/22 21:02:54;;;;;;;0.40;0.40;;;13.90;99.90;;;;;;5051682;28;20234;-67
2022/06/22 21:05:35;;;;;;;0.40;0.40;;;13.90;99.90;;;;;;5055958;28;20268;-67
2022/06/22 21:08:31;;;;;;;0.40;0.40;;;13.80;99.90;;;;;;5073097;28;20245;-68
2022/06/22 21:11:25;;;;;;;0.30;0.30;;;13.80;99.90;;;;;;5060856;28;20212;-68
2022/06/22 21:13:54;;;;;;;1.52;0.70;;;13.80;99.90;;;;;;5074551;28;20250;-68
2022/06/22 21:16:59;;;;;;;1.55;0.63;;;13.90;99.90;;;;;;5072922;28;20228;-68
2022/06/22 21:19:44;;;;;;;0.40;0.40;;;13.90;99.90;;;;;;5058296;28;20205;-69
2022/06/22 21:22:32;;;;;;;2.38;1.48;;;14.00;99.90;;;;;;5054760;28;20190;-69
2022/06/22 21:25:00;;;;;;;0.50;0.50;;;14.00;99.90;;;;;;5054590;28;20198;-68
2022/06/22 21:27:51;;;;;;;0.40;0.40;;;13.90;99.90;;;;;;5055159;28;20185;-69
2022/06/22 21:30:20;;;;;;;0.40;0.40;;;13.90;99.90;;;;;;5052440;28;20193;-68
2022/06/22 21:32:51;;;;;;;0.60;0.60;;;13.90;99.90;;;;;;5052856;28;20208;-68
2022/06/22 21:35:42;;;;;;;0.40;0.40;;;13.90;99.90;;;;;;5054001;28;20202;-68
2022/06/22 21:38:35;;;;;;;0.88;0.82;;;13.80;99.90;;;;;;5053162;28;20190;-68
2022/06/22 21:41:19;;;;;;;1.05;0.95;;;13.80;99.90;;;;;;5054449;28;20560;-67
2022/06/22 21:44:20;;;;;;;0.52;0.52;;;13.90;99.90;;;;;;5054045;28;20225;-68
2022/06/22 21:47:03;;;;;;;0.40;0.40;;;13.90;99.90;;;;;;5048194;28;20585;-68
2022/06/22 21:50:07;;;;;;;0.57;0.57;;;13.80;99.90;;;;;;5053614;28;20189;-69
2022/06/22 21:53:06;;;;;;;0.40;0.40;;;13.80;99.90;;;;;;5011307;28;20569;-67
2022/06/22 21:55:32;;;;;;;0.63;0.63;;;13.80;99.90;;;;;;5014329;28;20605;-68
2022/06/22 21:58:09;;;;;;;0.50;0.50;;;13.80;99.90;;;;;;5052400;28;20284;-68
2022/06/22 22:00:43;;;;;;;0.68;0.60;;;13.80;99.90;;;;;;5053489;28;20215;-68
2022/06/22 22:03:37;;;;;;;0.40;0.40;;;13.80;99.90;;;;;;5083246;28;20188;-68
2022/06/22 22:06:15;;;;;;;4.82;1.40;;;13.80;99.90;;;;;;5085769;28;20200;-67
2022/06/22 22:08:50;;;;;;;0.80;0.75;;;13.80;99.90;;;;;;5072223;28;20296;-68
2022/06/22 22:11:18;;;;;;;0.50;0.50;;;13.80;99.90;;;;;;5073420;28;20232;-67
2022/06/22 22:13:51;;;;;;;0.40;0.40;;;13.80;99.90;;;;;;5073297;28;20674;-67
2022/06/22 22:16:45;;;;;;;5.00;1.05;;;13.70;99.90;;;;;;5038993;28;20230;-68
2022/06/22 22:19:16;;;;;;;0.40;0.40;;;13.80;99.90;;;;;;4999038;28;20206;-67
2022/06/22 22:21:50;;;;;;;0.50;0.50;;;13.70;99.90;;;;;;5033316;28;20191;-67
2022/06/22 22:24:41;;;;;;;0.82;0.82;;;13.70;99.90;;;;;;5033427;28;20199;-67
2022/06/22 22:27:45;;;;;;;0.40;0.40;;;13.70;99.90;;;;;;5033336;28;20784;-68
2022/06/22 22:30:27;;;;;;;1.02;1.02;;;13.80;99.90;;;;;;5029055;28;20672;-67
2022/06/22 22:32:53;;;;;;;0.65;0.65;;;13.80;99.90;;;;;;5033052;28;20194;-68
2022/06/22 22:35:32;;;;;;;0.40;0.40;;;13.80;99.90;;;;;;5032787;28;20224;-68
2022/06/22 22:37:59;;;;;;;0.90;0.77;;;13.80;99.90;;;;;;5032864;28;20183;-67
2022/06/22 22:40:33;;;;;;;0.60;0.60;;;13.70;99.90;;;;;;5015059;28;20240;-68
2022/06/22 22:43:00;;;;;;;0.47;0.47;;;13.70;99.90;;;;;;5032861;28;20644;-67
2022/06/22 22:45:28;;;;;;;0.40;0.40;;;13.80;99.90;;;;;;5040886;28;20274;-67
2022/06/22 22:47:57;;;;;;;0.50;0.50;;;13.80;99.90;;;;;;5052692;28;20269;-67
2022/06/22 22:50:36;;;;;;;0.43;0.43;;;13.80;99.90;;;;;;5034274;28;20232;-67
2022/06/22 22:53:25;;;;;;;0.50;0.50;;;13.80;99.90;;;;;;5052519;28;20196;-68
2022/06/22 22:55:52;;;;;;;0.50;0.50;;;13.80;99.90;;;;;;5052461;28;20197;-68
2022/06/22 22:58:25;;;;;;;0.60;0.60;;;13.70;99.90;;;;;;5052342;28;20197;-68
2022/06/22 23:00:52;;;;;;;0.50;0.50;;;13.70;99.90;;;;;;5052673;28;20196;-68
2022/06/22 23:03:25;;;;;;;0.50;0.50;;;13.60;99.90;;;;;;5052236;28;20189;-68
2022/06/22 23:05:53;;;;;;;0.50;0.50;;;13.60;99.90;;;;;;5052208;28;20707;-67
2022/06/22 23:08:27;;;;;;;0.55;0.55;;;13.60;99.90;;;;;;5051983;28;20202;-69
2022/06/22 23:10:57;;;;;;;0.43;0.43;;;13.60;99.90;;;;;;5045409;28;20248;-68
2022/06/22 23:13:32;;;;;;;1.05;1.05;;;13.60;99.90;;;;;;5014409;28;20583;-68
2022/06/22 23:16:03;;;;;;;0.50;0.50;;;13.60;99.90;;;;;;5033579;28;20229;-69
2022/06/22 23:18:29;;;;;;;0.88;0.88;;;13.60;99.90;;;;;;5050738;28;20719;-68
2022/06/22 23:20:55;;;;;;;0.40;0.40;;;13.60;99.90;;;;;;5050780;28;20285;-67
2022/06/22 23:23:25;;;;;;;0.68;0.68;;;13.50;99.90;;;;;;5051993;28;20562;-68
2022/06/22 23:26:01;;;;;;;0.50;0.50;;;13.50;99.90;;;;;;5051487;28;20288;-67
2022/06/22 23:28:30;;;;;;;1.17;0.93;;;13.50;99.90;;;;;;5051863;28;20655;-68
2022/06/22 23:31:03;;;;;;;0.40;0.40;;;13.40;99.90;;;;;;5050485;28;20254;-68
2022/06/22 23:33:41;;;;;;;0.50;0.50;;;13.40;99.90;;;;;;5050425;28;20205;-67
2022/06/22 23:36:16;;;;;;;1.30;1.20;;;13.50;99.90;;;;;;5050487;28;20253;-68
2022/06/22 23:38:44;;;;;;;1.58;1.42;;;13.50;99.90;;;;;;5050382;28;20276;-68
2022/06/22 23:41:12;;;;;;;0.63;0.63;;;13.40;99.90;;;;;;5050584;28;20644;-67
2022/06/22 23:43:41;;;;;;;1.55;0.65;;;13.50;99.90;;;;;;5051490;28;20205;-68
2022/06/22 23:46:13;;;;;;;1.08;1.08;;;13.50;99.90;;;;;;5051709;28;20270;-68
2022/06/22 23:48:44;;;;;;;1.17;0.73;;;13.50;99.90;;;;;;5069866;28;20280;-68
2022/06/22 23:51:33;;;;;;;0.50;0.50;;;13.50;99.90;;;;;;5071572;28;20189;-66
2022/06/22 23:54:13;;;;;;;0.70;0.70;;;13.50;99.90;;;;;;5072338;28;20211;-68
2022/06/22 23:56:45;;;;;;;0.70;0.70;;;13.50;99.90;;;;;;5091496;28;20238;-68
2022/06/22 23:59:34;;;;;;;0.70;0.70;;;13.50;99.90;;;;;;5091538;28;20320;-67
